sensor_id;sensor_type;location;lat;lon;timestamp;temperature;humidity
73509;SHT30;61750;55.036;73.312;2023-03-13T00:01:29;-12.05;83.24
73509;SHT30;61750;55.036;73.312;2023-03-13T00:03:55;-12.15;83.00
73509;SHT30;61750;55.036;73.312;2023-03-13T00:06:22;-12.16;83.13
73509;SHT30;61750;55.036;73.312;2023-03-13T00:08:48;-12.26;82.91
73509;SHT30;61750;55.036;73.312;2023-03-13T00:11:14;-12.28;83.16
73509;SHT30;61750;55.036;73.312;2023-03-13T00:13:46;-12.12;83.54
73509;SHT30;61750;55.036;73.312;2023-03-13T00:16:12;-12.16;83.32
73509;SHT30;61750;55.036;73.312;2023-03-13T00:18:50;-12.20;82.94
73509;SHT30;61750;55.036;73.312;2023-03-13T00:21:23;-12.12;83.18
73509;SHT30;61750;55.036;73.312;2023-03-13T00:23:49;-12.15;83.11
73509;SHT30;61750;55.036;73.312;2023-03-13T00:26:21;-12.23;82.91
73509;SHT30;61750;55.036;73.312;2023-03-13T00:28:48;-12.33;82.53
73509;SHT30;61750;55.036;73.312;2023-03-13T00:31:21;-12.39;82.61
73509;SHT30;61750;55.036;73.312;2023-03-13T00:33:53;-12.44;82.61
73509;SHT30;61750;55.036;73.312;2023-03-13T00:36:29;-12.44;82.75
73509;SHT30;61750;55.036;73.312;2023-03-13T00:39:01;-12.43;82.95
73509;SHT30;61750;55.036;73.312;2023-03-13T00:41:28;-12.49;82.78
73509;SHT30;61750;55.036;73.312;2023-03-13T00:43:54;-12.49;82.94
73509;SHT30;61750;55.036;73.312;2023-03-13T00:46:21;-12.47;83.02
73509;SHT30;61750;55.036;73.312;2023-03-13T00:48:57;-12.49;83.11
73509;SHT30;61750;55.036;73.312;2023-03-13T00:51:24;-12.46;83.28
73509;SHT30;61750;55.036;73.312;2023-03-13T00:53:51;-12.47;83.14
73509;SHT30;61750;55.036;73.312;2023-03-13T00:56:18;-12.50;82.94
73509;SHT30;61750;55.036;73.312;2023-03-13T00:58:45;-12.53;83.08
73509;SHT30;61750;55.036;73.312;2023-03-13T01:03:41;-12.70;82.58
73509;SHT30;61750;55.036;73.312;2023-03-13T01:06:14;-12.78;82.29
73509;SHT30;61750;55.036;73.312;2023-03-13T01:08:50;-12.77;82.60
73509;SHT30;61750;55.036;73.312;2023-03-13T01:11:17;-12.74;82.83
73509;SHT30;61750;55.036;73.312;2023-03-13T01:13:44;-12.70;83.03
73509;SHT30;61750;55.036;73.312;2023-03-13T01:16:11;-12.68;83.12
73509;SHT30;61750;55.036;73.312;2023-03-13T01:18:38;-12.68;83.05
73509;SHT30;61750;55.036;73.312;2023-03-13T01:21:15;-12.75;82.80
73509;SHT30;61750;55.036;73.312;2023-03-13T01:23:41;-12.81;82.59
73509;SHT30;61750;55.036;73.312;2023-03-13T01:26:09;-12.81;82.69
73509;SHT30;61750;55.036;73.312;2023-03-13T01:28:35;-12.81;82.90
73509;SHT30;61750;55.036;73.312;2023-03-13T01:31:09;-12.73;82.96
73509;SHT30;61750;55.036;73.312;2023-03-13T01:33:36;-12.71;82.98
73509;SHT30;61750;55.036;73.312;2023-03-13T01:36:12;-12.74;82.84
73509;SHT30;61750;55.036;73.312;2023-03-13T01:38:46;-12.70;82.85
73509;SHT30;61750;55.036;73.312;2023-03-13T01:41:12;-12.67;82.84
73509;SHT30;61750;55.036;73.312;2023-03-13T01:43:38;-12.64;82.82
73509;SHT30;61750;55.036;73.312;2023-03-13T01:49:09;-12.56;82.89
73509;SHT30;61750;55.036;73.312;2023-03-13T01:51:51;-12.46;82.98
73509;SHT30;61750;55.036;73.312;2023-03-13T01:54:20;-12.33;83.26
73509;SHT30;61750;55.036;73.312;2023-03-13T01:56:57;-12.30;83.01
73509;SHT30;61750;55.036;73.312;2023-03-13T01:59:26;-12.26;82.82
73509;SHT30;61750;55.036;73.312;2023-03-13T02:01:54;-12.13;82.95
73509;SHT30;61750;55.036;73.312;2023-03-13T02:04:37;-12.00;83.05
73509;SHT30;61750;55.036;73.312;2023-03-13T02:07:17;-11.93;82.92
73509;SHT30;61750;55.036;73.312;2023-03-13T02:09:44;-11.88;82.87
73509;SHT30;61750;55.036;73.312;2023-03-13T02:12:54;-11.75;82.99
73509;SHT30;61750;55.036;73.312;2023-03-13T02:15:21;-11.67;83.01
73509;SHT30;61750;55.036;73.312;2023-03-13T02:17:54;-11.57;82.99
73509;SHT30;61750;55.036;73.312;2023-03-13T02:20:21;-11.51;82.88
73509;SHT30;61750;55.036;73.312;2023-03-13T02:23:06;-11.34;82.92
73509;SHT30;61750;55.036;73.312;2023-03-13T02:28:03;-11.17;82.80
73509;SHT30;61750;55.036;73.312;2023-03-13T02:30:33;-11.03;82.98
73509;SHT30;61750;55.036;73.312;2023-03-13T02:33:00;-10.93;82.83
73509;SHT30;61750;55.036;73.312;2023-03-13T02:35:27;-10.77;82.91
73509;SHT30;61750;55.036;73.312;2023-03-13T02:38:00;-10.68;82.78
73509;SHT30;61750;55.036;73.312;2023-03-13T02:40:29;-10.58;82.73
73509;SHT30;61750;55.036;73.312;2023-03-13T02:42:57;-10.45;82.69
73509;SHT30;61750;55.036;73.312;2023-03-13T02:45:30;-10.34;82.67
73509;SHT30;61750;55.036;73.312;2023-03-13T02:48:08;-10.22;82.74
73509;SHT30;61750;55.036;73.312;2023-03-13T02:53:31;-9.91;82.65
73509;SHT30;61750;55.036;73.312;2023-03-13T02:55:58;-9.75;82.78
73509;SHT30;61750;55.036;73.312;2023-03-13T02:58:24;-9.61;82.65
73509;SHT30;61750;55.036;73.312;2023-03-13T03:00:51;-9.46;82.65
73509;SHT30;61750;55.036;73.312;2023-03-13T03:03:17;-9.39;82.48
73509;SHT30;61750;55.036;73.312;2023-03-13T03:05:43;-9.26;82.36
73509;SHT30;61750;55.036;73.312;2023-03-13T03:08:09;-9.18;82.29
73509;SHT30;61750;55.036;73.312;2023-03-13T03:10:36;-9.06;82.25
73509;SHT30;61750;55.036;73.312;2023-03-13T03:13:06;-8.91;82.38
73509;SHT30;61750;55.036;73.312;2023-03-13T03:15:32;-8.82;82.12
73509;SHT30;61750;55.036;73.312;2023-03-13T03:17:58;-8.74;82.03
73509;SHT30;61750;55.036;73.312;2023-03-13T03:20:34;-8.60;82.06
73509;SHT30;61750;55.036;73.312;2023-03-13T03:23:00;-8.51;81.78
73509;SHT30;61750;55.036;73.312;2023-03-13T03:25:26;-8.41;81.73
73509;SHT30;61750;55.036;73.312;2023-03-13T03:27:52;-8.36;81.61
73509;SHT30;61750;55.036;73.312;2023-03-13T03:30:20;-8.27;81.38
73509;SHT30;61750;55.036;73.312;2023-03-13T03:32:54;-8.19;81.22
73509;SHT30;61750;55.036;73.312;2023-03-13T03:35:21;-8.10;81.01
73509;SHT30;61750;55.036;73.312;2023-03-13T03:37:54;-8.03;80.76
73509;SHT30;61750;55.036;73.312;2023-03-13T03:40:20;-7.96;80.64
73509;SHT30;61750;55.036;73.312;2023-03-13T03:42:54;-7.82;80.67
73509;SHT30;61750;55.036;73.312;2023-03-13T03:45:20;-7.76;80.34
73509;SHT30;61750;55.036;73.312;2023-03-13T03:47:54;-7.62;80.21
73509;SHT30;61750;55.036;73.312;2023-03-13T03:50:20;-7.49;79.92
73509;SHT30;61750;55.036;73.312;2023-03-13T03:53:04;-7.34;79.61
73509;SHT30;61750;55.036;73.312;2023-03-13T03:55:30;-7.25;79.37
73509;SHT30;61750;55.036;73.312;2023-03-13T03:57:56;-7.12;79.11
73509;SHT30;61750;55.036;73.312;2023-03-13T04:00:46;-6.91;78.95
73509;SHT30;61750;55.036;73.312;2023-03-13T04:03:13;-6.81;78.35
73509;SHT30;61750;55.036;73.312;2023-03-13T04:05:41;-6.69;77.82
73509;SHT30;61750;55.036;73.312;2023-03-13T04:08:17;-6.53;77.31
73509;SHT30;61750;55.036;73.312;2023-03-13T04:10:44;-6.47;76.12
73509;SHT30;61750;55.036;73.312;2023-03-13T04:13:10;-6.33;76.20
73509;SHT30;61750;55.036;73.312;2023-03-13T04:15:37;-6.19;75.65
73509;SHT30;61750;55.036;73.312;2023-03-13T04:18:09;-6.11;74.57
73509;SHT30;61750;55.036;73.312;2023-03-13T04:20:40;-6.06;74.05
73509;SHT30;61750;55.036;73.312;2023-03-13T04:23:07;-5.91;74.10
73509;SHT30;61750;55.036;73.312;2023-03-13T04:25:33;-5.71;73.88
73509;SHT30;61750;55.036;73.312;2023-03-13T04:28:00;-5.47;73.64
73509;SHT30;61750;55.036;73.312;2023-03-13T04:30:34;-5.38;72.55
73509;SHT30;61750;55.036;73.312;2023-03-13T04:33:23;-5.19;72.08
73509;SHT30;61750;55.036;73.312;2023-03-13T04:36:12;-5.06;71.53
73509;SHT30;61750;55.036;73.312;2023-03-13T04:38:46;-4.89;71.36
73509;SHT30;61750;55.036;73.312;2023-03-13T04:41:31;-4.68;70.17
73509;SHT30;61750;55.036;73.312;2023-03-13T04:44:24;-4.57;69.32
73509;SHT30;61750;55.036;73.312;2023-03-13T04:47:13;-4.40;68.65
73509;SHT30;61750;55.036;73.312;2023-03-13T04:50:05;-4.24;67.89
73509;SHT30;61750;55.036;73.312;2023-03-13T04:52:58;-3.86;67.58
73509;SHT30;61750;55.036;73.312;2023-03-13T04:55:40;-3.69;66.13
73509;SHT30;61750;55.036;73.312;2023-03-13T04:58:36;-3.51;65.57
73509;SHT30;61750;55.036;73.312;2023-03-13T05:01:31;-3.39;64.43
73509;SHT30;61750;55.036;73.312;2023-03-13T05:04:20;-3.28;64.42
73509;SHT30;61750;55.036;73.312;2023-03-13T05:06:51;-3.11;64.23
73509;SHT30;61750;55.036;73.312;2023-03-13T05:09:39;-2.95;63.42
73509;SHT30;61750;55.036;73.312;2023-03-13T05:12:54;-2.73;63.05
73509;SHT30;61750;55.036;73.312;2023-03-13T05:15:51;-2.52;62.34
73509;SHT30;61750;55.036;73.312;2023-03-13T05:18:35;-2.39;61.81
73509;SHT30;61750;55.036;73.312;2023-03-13T05:21:40;-2.25;61.50
73509;SHT30;61750;55.036;73.312;2023-03-13T05:24:36;-1.99;61.08
73509;SHT30;61750;55.036;73.312;2023-03-13T05:27:30;-2.02;60.32
73509;SHT30;61750;55.036;73.312;2023-03-13T05:30:30;-2.02;59.37
73509;SHT30;61750;55.036;73.312;2023-03-13T05:33:23;-2.09;60.15
73509;SHT30;61750;55.036;73.312;2023-03-13T05:36:02;-1.95;60.06
73509;SHT30;61750;55.036;73.312;2023-03-13T05:39:06;-1.75;59.88
73509;SHT30;61750;55.036;73.312;2023-03-13T05:41:47;-1.65;58.99
73509;SHT30;61750;55.036;73.312;2023-03-13T05:44:46;-1.41;58.25
73509;SHT30;61750;55.036;73.312;2023-03-13T05:47:54;-1.27;57.40
73509;SHT30;61750;55.036;73.312;2023-03-13T05:50:34;-1.18;57.55
73509;SHT30;61750;55.036;73.312;2023-03-13T05:53:16;-0.94;58.05
73509;SHT30;61750;55.036;73.312;2023-03-13T05:56:01;-0.82;57.38
73509;SHT30;61750;55.036;73.312;2023-03-13T05:58:45;-0.69;56.83
73509;SHT30;61750;55.036;73.312;2023-03-13T06:01:32;-0.60;57.52
73509;SHT30;61750;55.036;73.312;2023-03-13T06:04:06;-0.69;57.03
73509;SHT30;61750;55.036;73.312;2023-03-13T06:06:35;-0.59;57.32
73509;SHT30;61750;55.036;73.312;2023-03-13T06:09:01;-0.66;56.86
73509;SHT30;61750;55.036;73.312;2023-03-13T06:11:30;-0.73;57.33
73509;SHT30;61750;55.036;73.312;2023-03-13T06:13:56;-0.70;57.30
73509;SHT30;61750;55.036;73.312;2023-03-13T06:16:32;-0.62;58.18
73509;SHT30;61750;55.036;73.312;2023-03-13T06:19:13;-0.33;57.13
73509;SHT30;61750;55.036;73.312;2023-03-13T06:21:59;-0.43;55.73
73509;SHT30;61750;55.036;73.312;2023-03-13T06:24:34;-0.39;56.44
73509;SHT30;61750;55.036;73.312;2023-03-13T06:27:01;-0.32;56.65
73509;SHT30;61750;55.036;73.312;2023-03-13T06:29:27;-0.14;57.06
73509;SHT30;61750;55.036;73.312;2023-03-13T06:31:53;-0.17;56.76
73509;SHT30;61750;55.036;73.312;2023-03-13T06:34:25;-0.14;56.34
73509;SHT30;61750;55.036;73.312;2023-03-13T06:36:56;-0.19;56.38
73509;SHT30;61750;55.036;73.312;2023-03-13T06:40:06;-0.25;56.29
73509;SHT30;61750;55.036;73.312;2023-03-13T06:42:54;-0.19;56.99
73509;SHT30;61750;55.036;73.312;2023-03-13T06:45:20;-0.14;57.09
73509;SHT30;61750;55.036;73.312;2023-03-13T06:47:54;-0.11;56.65
73509;SHT30;61750;55.036;73.312;2023-03-13T06:50:28;0.10;56.99
73509;SHT30;61750;55.036;73.312;2023-03-13T06:52:57;0.27;56.48
73509;SHT30;61750;55.036;73.312;2023-03-13T06:55:29;0.37;56.75
73509;SHT30;61750;55.036;73.312;2023-03-13T06:58:00;0.58;56.95
73509;SHT30;61750;55.036;73.312;2023-03-13T07:00:26;0.78;55.90
73509;SHT30;61750;55.036;73.312;2023-03-13T07:02:55;1.00;55.88
73509;SHT30;61750;55.036;73.312;2023-03-13T07:05:21;1.02;54.87
73509;SHT30;61750;55.036;73.312;2023-03-13T07:07:54;1.07;55.60
73509;SHT30;61750;55.036;73.312;2023-03-13T07:10:20;1.36;55.92
73509;SHT30;61750;55.036;73.312;2023-03-13T07:12:54;1.44;54.98
73509;SHT30;61750;55.036;73.312;2023-03-13T07:15:20;1.56;55.91
73509;SHT30;61750;55.036;73.312;2023-03-13T07:17:55;1.38;54.29
73509;SHT30;61750;55.036;73.312;2023-03-13T07:20:21;1.35;55.60
73509;SHT30;61750;55.036;73.312;2023-03-13T07:22:54;1.65;56.23
73509;SHT30;61750;55.036;73.312;2023-03-13T07:25:30;1.77;55.71
73509;SHT30;61750;55.036;73.312;2023-03-13T07:27:56;2.19;55.69
73509;SHT30;61750;55.036;73.312;2023-03-13T07:30:22;2.36;55.27
73509;SHT30;61750;55.036;73.312;2023-03-13T07:32:54;2.50;54.44
73509;SHT30;61750;55.036;73.312;2023-03-13T07:35:30;2.55;53.89
73509;SHT30;61750;55.036;73.312;2023-03-13T07:37:56;2.34;54.29
73509;SHT30;61750;55.036;73.312;2023-03-13T07:40:22;2.57;54.52
73509;SHT30;61750;55.036;73.312;2023-03-13T07:42:57;2.66;54.93
73509;SHT30;61750;55.036;73.312;2023-03-13T07:45:23;2.61;54.68
73509;SHT30;61750;55.036;73.312;2023-03-13T07:47:54;2.70;55.07
73509;SHT30;61750;55.036;73.312;2023-03-13T07:50:20;2.74;54.40
73509;SHT30;61750;55.036;73.312;2023-03-13T07:52:56;3.13;55.40
73509;SHT30;61750;55.036;73.312;2023-03-13T07:55:22;3.15;53.67
73509;SHT30;61750;55.036;73.312;2023-03-13T07:57:48;3.16;54.40
73509;SHT30;61750;55.036;73.312;2023-03-13T08:00:14;2.98;54.08
73509;SHT30;61750;55.036;73.312;2023-03-13T08:02:56;2.99;53.80
73509;SHT30;61750;55.036;73.312;2023-03-13T08:05:22;2.91;54.44
73509;SHT30;61750;55.036;73.312;2023-03-13T08:07:58;2.94;53.89
73509;SHT30;61750;55.036;73.312;2023-03-13T08:10:29;3.11;54.63
73509;SHT30;61750;55.036;73.312;2023-03-13T08:12:56;3.08;54.00
73509;SHT30;61750;55.036;73.312;2023-03-13T08:15:32;2.96;54.21
73509;SHT30;61750;55.036;73.312;2023-03-13T08:18:08;3.29;55.53
73509;SHT30;61750;55.036;73.312;2023-03-13T08:20:34;3.19;54.26
73509;SHT30;61750;55.036;73.312;2023-03-13T08:23:05;3.33;55.04
73509;SHT30;61750;55.036;73.312;2023-03-13T08:25:31;3.13;54.87
73509;SHT30;61750;55.036;73.312;2023-03-13T08:28:07;3.23;54.79
73509;SHT30;61750;55.036;73.312;2023-03-13T08:30:41;3.30;53.83
73509;SHT30;61750;55.036;73.312;2023-03-13T08:33:07;3.22;55.10
73509;SHT30;61750;55.036;73.312;2023-03-13T08:35:43;3.43;55.04
73509;SHT30;61750;55.036;73.312;2023-03-13T08:38:09;4.05;54.44
73509;SHT30;61750;55.036;73.312;2023-03-13T08:40:35;4.58;52.14
73509;SHT30;61750;55.036;73.312;2023-03-13T08:43:01;4.45;53.95
73509;SHT30;61750;55.036;73.312;2023-03-13T08:45:36;4.44;52.70
73509;SHT30;61750;55.036;73.312;2023-03-13T08:48:13;4.95;52.30
73509;SHT30;61750;55.036;73.312;2023-03-13T08:50:39;5.09;51.23
73509;SHT30;61750;55.036;73.312;2023-03-13T08:53:09;4.86;51.38
73509;SHT30;61750;55.036;73.312;2023-03-13T08:55:35;5.22;51.28
73509;SHT30;61750;55.036;73.312;2023-03-13T08:58:01;4.86;50.99
73509;SHT30;61750;55.036;73.312;2023-03-13T09:00:27;4.72;52.74
73509;SHT30;61750;55.036;73.312;2023-03-13T09:02:58;4.95;51.08
73509;SHT30;61750;55.036;73.312;2023-03-13T09:05:24;4.92;52.13
73509;SHT30;61750;55.036;73.312;2023-03-13T09:07:53;5.24;50.86
73509;SHT30;61750;55.036;73.312;2023-03-13T09:10:19;5.47;51.31
73509;SHT30;61750;55.036;73.312;2023-03-13T09:12:54;5.65;50.46
73509;SHT30;61750;55.036;73.312;2023-03-13T09:15:20;5.81;49.87
73509;SHT30;61750;55.036;73.312;2023-03-13T09:17:53;5.41;51.01
73509;SHT30;61750;55.036;73.312;2023-03-13T09:20:23;5.53;50.40
73509;SHT30;61750;55.036;73.312;2023-03-13T09:22:53;5.94;49.84
73509;SHT30;61750;55.036;73.312;2023-03-13T09:25:19;5.97;49.88
73509;SHT30;61750;55.036;73.312;2023-03-13T09:27:45;6.54;49.45
73509;SHT30;61750;55.036;73.312;2023-03-13T09:30:21;6.90;47.97
73509;SHT30;61750;55.036;73.312;2023-03-13T09:32:53;7.20;46.94
73509;SHT30;61750;55.036;73.312;2023-03-13T09:35:19;6.93;47.11
73509;SHT30;61750;55.036;73.312;2023-03-13T09:37:54;7.25;46.82
73509;SHT30;61750;55.036;73.312;2023-03-13T09:40:21;7.05;46.76
73509;SHT30;61750;55.036;73.312;2023-03-13T09:42:55;6.96;46.60
73509;SHT30;61750;55.036;73.312;2023-03-13T09:45:33;7.28;46.42
73509;SHT30;61750;55.036;73.312;2023-03-13T09:48:04;6.94;46.69
73509;SHT30;61750;55.036;73.312;2023-03-13T09:50:35;7.38;46.10
73509;SHT30;61750;55.036;73.312;2023-03-13T09:53:10;7.75;46.01
73509;SHT30;61750;55.036;73.312;2023-03-13T09:55:42;8.09;44.80
73509;SHT30;61750;55.036;73.312;2023-03-13T09:58:16;8.36;44.02
73509;SHT30;61750;55.036;73.312;2023-03-13T10:00:47;7.88;44.50
73509;SHT30;61750;55.036;73.312;2023-03-13T10:03:22;7.93;45.14
73509;SHT30;61750;55.036;73.312;2023-03-13T10:08:45;8.34;44.66
73509;SHT30;61750;55.036;73.312;2023-03-13T10:11:36;7.98;43.60
73509;SHT30;61750;55.036;73.312;2023-03-13T10:19:16;7.45;46.02
73509;SHT30;61750;55.036;73.312;2023-03-13T10:21:46;7.83;45.18
73509;SHT30;61750;55.036;73.312;2023-03-13T10:24:31;7.68;44.23
73509;SHT30;61750;55.036;73.312;2023-03-13T10:26:58;7.76;44.93
73509;SHT30;61750;55.036;73.312;2023-03-13T10:29:34;7.71;44.78
73509;SHT30;61750;55.036;73.312;2023-03-13T10:32:14;8.20;43.97
73509;SHT30;61750;55.036;73.312;2023-03-13T10:37:59;8.50;43.87
73509;SHT30;61750;55.036;73.312;2023-03-13T10:40:30;8.53;42.75
73509;SHT30;61750;55.036;73.312;2023-03-13T10:43:01;8.33;43.28
73509;SHT30;61750;55.036;73.312;2023-03-13T10:45:30;8.34;43.82
73509;SHT30;61750;55.036;73.312;2023-03-13T10:47:59;8.59;42.31
73509;SHT30;61750;55.036;73.312;2023-03-13T10:50:32;8.60;42.18
73509;SHT30;61750;55.036;73.312;2023-03-13T10:53:18;8.77;42.75
73509;SHT30;61750;55.036;73.312;2023-03-13T10:55:56;8.29;43.09
73509;SHT30;61750;55.036;73.312;2023-03-13T10:58:40;9.00;42.59
73509;SHT30;61750;55.036;73.312;2023-03-13T11:01:17;8.83;42.16
73509;SHT30;61750;55.036;73.312;2023-03-13T11:03:46;8.53;41.83
73509;SHT30;61750;55.036;73.312;2023-03-13T11:06:46;8.10;42.68
73509;SHT30;61750;55.036;73.312;2023-03-13T11:09:14;6.76;45.17
73509;SHT30;61750;55.036;73.312;2023-03-13T11:14:18;5.01;49.01
73509;SHT30;61750;55.036;73.312;2023-03-13T11:16:45;5.06;49.77
73509;SHT30;61750;55.036;73.312;2023-03-13T11:27:16;6.97;43.65
73509;SHT30;61750;55.036;73.312;2023-03-13T11:32:54;7.13;44.14
73509;SHT30;61750;55.036;73.312;2023-03-13T11:38:11;7.25;43.64
73509;SHT30;61750;55.036;73.312;2023-03-13T11:43:36;7.05;43.31
73509;SHT30;61750;55.036;73.312;2023-03-13T11:53:58;7.47;43.29
73509;SHT30;61750;55.036;73.312;2023-03-13T11:56:27;7.52;43.24
73509;SHT30;61750;55.036;73.312;2023-03-13T12:01:52;6.75;44.27
73509;SHT30;61750;55.036;73.312;2023-03-13T12:04:35;6.87;43.79
73509;SHT30;61750;55.036;73.312;2023-03-13T12:07:06;6.50;43.70
73509;SHT30;61750;55.036;73.312;2023-03-13T12:09:43;6.48;44.54
73509;SHT30;61750;55.036;73.312;2023-03-13T12:20:33;5.40;46.20
73509;SHT30;61750;55.036;73.312;2023-03-13T12:23:11;5.23;46.13
73509;SHT30;61750;55.036;73.312;2023-03-13T12:28:35;4.45;47.60
73509;SHT30;61750;55.036;73.312;2023-03-13T12:31:21;4.10;47.92
73509;SHT30;61750;55.036;73.312;2023-03-13T12:34:26;3.05;50.21
73509;SHT30;61750;55.036;73.312;2023-03-13T12:36:45;2.30;52.09
73509;SHT30;61750;55.036;73.312;2023-03-13T12:44:41;-0.19;58.56
73509;SHT30;61750;55.036;73.312;2023-03-13T13:00:55;-1.98;64.61
73509;SHT30;61750;55.036;73.312;2023-03-13T13:06:02;-2.29;66.30
73509;SHT30;61750;55.036;73.312;2023-03-13T13:08:38;-2.52;66.79
73509;SHT30;61750;55.036;73.312;2023-03-13T13:13:50;-2.76;68.10
73509;SHT30;61750;55.036;73.312;2023-03-13T13:16:17;-2.95;68.75
73509;SHT30;61750;55.036;73.312;2023-03-13T13:18:55;-3.12;69.28
73509;SHT30;61750;55.036;73.312;2023-03-13T13:21:26;-3.22;70.06
73509;SHT30;61750;55.036;73.312;2023-03-13T13:23:52;-3.36;70.25
73509;SHT30;61750;55.036;73.312;2023-03-13T13:28:58;-3.55;71.48
73509;SHT30;61750;55.036;73.312;2023-03-13T13:36:56;-3.87;72.63
73509;SHT30;61750;55.036;73.312;2023-03-13T13:39:35;-3.84;72.88
73509;SHT30;61750;55.036;73.312;2023-03-13T13:45:01;-3.89;72.86
73509;SHT30;61750;55.036;73.312;2023-03-13T13:48:13;-3.93;72.86
73509;SHT30;61750;55.036;73.312;2023-03-13T13:53:41;-4.01;72.98
73509;SHT30;61750;55.036;73.312;2023-03-13T13:56:29;-4.04;73.00
73509;SHT30;61750;55.036;73.312;2023-03-13T13:59:44;-4.11;73.10
73509;SHT30;61750;55.036;73.312;2023-03-13T14:01:45;-4.14;73.54
73509;SHT30;61750;55.036;73.312;2023-03-13T14:04:15;-4.21;73.65
73509;SHT30;61750;55.036;73.312;2023-03-13T14:06:49;-4.31;73.62
73509;SHT30;61750;55.036;73.312;2023-03-13T14:12:01;-4.42;74.09
73509;SHT30;61750;55.036;73.312;2023-03-13T14:14:27;-4.47;74.57
73509;SHT30;61750;55.036;73.312;2023-03-13T14:17:03;-4.54;74.74
73509;SHT30;61750;55.036;73.312;2023-03-13T14:19:38;-4.61;75.16
73509;SHT30;61750;55.036;73.312;2023-03-13T14:22:15;-4.66;75.69
73509;SHT30;61750;55.036;73.312;2023-03-13T14:24:41;-4.75;75.81
73509;SHT30;61750;55.036;73.312;2023-03-13T14:27:26;-4.85;76.35
73509;SHT30;61750;55.036;73.312;2023-03-13T14:30:03;-4.92;76.69
73509;SHT30;61750;55.036;73.312;2023-03-13T14:32:53;-4.96;77.22
73509;SHT30;61750;55.036;73.312;2023-03-13T14:35:20;-5.03;77.53
73509;SHT30;61750;55.036;73.312;2023-03-13T14:37:53;-5.10;77.87
73509;SHT30;61750;55.036;73.312;2023-03-13T14:40:36;-5.15;78.22
73509;SHT30;61750;55.036;73.312;2023-03-13T14:43:03;-5.23;78.48
73509;SHT30;61750;55.036;73.312;2023-03-13T14:45:30;-5.27;78.53
73509;SHT30;61750;55.036;73.312;2023-03-13T14:48:04;-5.36;78.88
73509;SHT30;61750;55.036;73.312;2023-03-13T14:50:30;-5.40;79.15
73509;SHT30;61750;55.036;73.312;2023-03-13T14:53:15;-5.50;79.29
73509;SHT30;61750;55.036;73.312;2023-03-13T14:55:42;-5.54;79.51
73509;SHT30;61750;55.036;73.312;2023-03-13T14:58:27;-5.58;79.77
73509;SHT30;61750;55.036;73.312;2023-03-13T15:01:10;-5.63;79.93
73509;SHT30;61750;55.036;73.312;2023-03-13T15:03:41;-5.67;80.16
73509;SHT30;61750;55.036;73.312;2023-03-13T15:06:17;-5.68;80.27
73509;SHT30;61750;55.036;73.312;2023-03-13T15:08:45;-5.74;80.39
73509;SHT30;61750;55.036;73.312;2023-03-13T15:11:36;-5.78;80.46
73509;SHT30;61750;55.036;73.312;2023-03-13T15:14:31;-5.81;80.53
73509;SHT30;61750;55.036;73.312;2023-03-13T15:16:57;-5.87;80.65
73509;SHT30;61750;55.036;73.312;2023-03-13T15:19:23;-5.94;80.68
73509;SHT30;61750;55.036;73.312;2023-03-13T15:21:59;-5.95;80.91
73509;SHT30;61750;55.036;73.312;2023-03-13T15:24:30;-6.05;80.85
73509;SHT30;61750;55.036;73.312;2023-03-13T15:26:56;-6.08;81.09
73509;SHT30;61750;55.036;73.312;2023-03-13T15:29:22;-6.06;81.30
73509;SHT30;61750;55.036;73.312;2023-03-13T15:31:53;-6.11;81.31
73509;SHT30;61750;55.036;73.312;2023-03-13T15:34:19;-6.03;81.48
73509;SHT30;61750;55.036;73.312;2023-03-13T15:36:49;-6.13;81.07
73509;SHT30;61750;55.036;73.312;2023-03-13T15:39:16;-6.16;80.83
73509;SHT30;61750;55.036;73.312;2023-03-13T15:41:53;-6.12;80.75
73509;SHT30;61750;55.036;73.312;2023-03-13T15:44:19;-6.19;80.39
73509;SHT30;61750;55.036;73.312;2023-03-13T15:46:50;-6.21;80.21
73509;SHT30;61750;55.036;73.312;2023-03-13T15:49:16;-6.22;80.09
73509;SHT30;61750;55.036;73.312;2023-03-13T15:51:42;-6.28;79.75
73509;SHT30;61750;55.036;73.312;2023-03-13T15:54:15;-6.29;79.66
73509;SHT30;61750;55.036;73.312;2023-03-13T15:56:51;-6.28;79.60
73509;SHT30;61750;55.036;73.312;2023-03-13T15:59:18;-6.32;79.32
73509;SHT30;61750;55.036;73.312;2023-03-13T16:01:44;-6.30;79.14
73509;SHT30;61750;55.036;73.312;2023-03-13T16:04:10;-6.35;78.94
73509;SHT30;61750;55.036;73.312;2023-03-13T16:06:41;-6.37;78.69
73509;SHT30;61750;55.036;73.312;2023-03-13T16:09:07;-6.42;78.77
73509;SHT30;61750;55.036;73.312;2023-03-13T16:11:35;-6.40;78.87
73509;SHT30;61750;55.036;73.312;2023-03-13T16:14:10;-6.45;78.88
73509;SHT30;61750;55.036;73.312;2023-03-13T16:16:36;-6.46;78.84
73509;SHT30;61750;55.036;73.312;2023-03-13T16:19:12;-6.45;78.82
73509;SHT30;61750;55.036;73.312;2023-03-13T16:21:38;-6.40;78.60
73509;SHT30;61750;55.036;73.312;2023-03-13T16:24:07;-6.43;77.96
73509;SHT30;61750;55.036;73.312;2023-03-13T16:26:33;-6.45;78.02
73509;SHT30;61750;55.036;73.312;2023-03-13T16:28:59;-6.46;77.81
73509;SHT30;61750;55.036;73.312;2023-03-13T16:31:26;-6.56;77.69
73509;SHT30;61750;55.036;73.312;2023-03-13T16:33:53;-6.60;77.73
73509;SHT30;61750;55.036;73.312;2023-03-13T16:36:20;-6.70;77.94
73509;SHT30;61750;55.036;73.312;2023-03-13T16:38:47;-6.76;78.29
73509;SHT30;61750;55.036;73.312;2023-03-13T16:41:17;-6.79;78.64
73509;SHT30;61750;55.036;73.312;2023-03-13T16:43:54;-6.80;78.97
73509;SHT30;61750;55.036;73.312;2023-03-13T16:46:29;-6.83;79.01
73509;SHT30;61750;55.036;73.312;2023-03-13T16:48:56;-6.86;78.92
73509;SHT30;61750;55.036;73.312;2023-03-13T16:51:23;-6.84;79.07
73509;SHT30;61750;55.036;73.312;2023-03-13T16:53:50;-6.84;79.26
73509;SHT30;61750;55.036;73.312;2023-03-13T16:58:44;-6.90;79.40
73509;SHT30;61750;55.036;73.312;2023-03-13T17:01:20;-6.96;79.55
73509;SHT30;61750;55.036;73.312;2023-03-13T17:03:47;-6.96;79.99
73509;SHT30;61750;55.036;73.312;2023-03-13T17:06:15;-6.99;80.20
73509;SHT30;61750;55.036;73.312;2023-03-13T17:08:42;-7.05;80.40
73509;SHT30;61750;55.036;73.312;2023-03-13T17:11:10;-7.05;80.52
73509;SHT30;61750;55.036;73.312;2023-03-13T17:13:42;-7.03;80.72
73509;SHT30;61750;55.036;73.312;2023-03-13T17:16:14;-7.05;80.71
73509;SHT30;61750;55.036;73.312;2023-03-13T17:18:41;-7.10;80.93
73509;SHT30;61750;55.036;73.312;2023-03-13T17:21:14;-7.07;81.16
73509;SHT30;61750;55.036;73.312;2023-03-13T17:23:48;-7.10;81.26
73509;SHT30;61750;55.036;73.312;2023-03-13T17:26:24;-7.07;81.70
73509;SHT30;61750;55.036;73.312;2023-03-13T17:29:00;-7.11;81.71
73509;SHT30;61750;55.036;73.312;2023-03-13T17:31:36;-7.12;81.88
73509;SHT30;61750;55.036;73.312;2023-03-13T17:34:12;-7.12;82.21
73509;SHT30;61750;55.036;73.312;2023-03-13T17:36:49;-7.11;82.59
73509;SHT30;61750;55.036;73.312;2023-03-13T17:39:15;-7.20;82.56
73509;SHT30;61750;55.036;73.312;2023-03-13T17:41:41;-7.24;82.68